Time;durP1;ratioP1;P1;durP2;ratioP2;P2;SDS_P1;SDS_P2;PMS_P1;PMS_P2;Temp;Humidity;BMP_temperature;BMP_pressure;BME280_temperature;BME280_humidity;BME280_pressure;Samples;Min_cycle;Max_cycle;Signal;HPM_P1;HPM_P2
2021/07/31 00:02:19;;;;;;;10.50;6.30;;;;;;;;;;5055182;28;20211;-72
2021/07/31 00:05:23;;;;;;;11.30;6.00;;;;;;;;;;5054659;28;20176;-72
2021/07/31 00:08:28;;;;;;;7.27;6.37;;;;;;;;;;5054761;28;20184;-72
2021/07/31 00:11:32;;;;;;;8.37;6.33;;;;;;;;;;5054998;28;20177;-72
2021/07/31 00:14:36;;;;;;;9.97;5.87;;;;;;;;;;5054275;28;20208;-72
2021/07/31 00:17:41;;;;;;;10.00;5.60;;;;;;;;;;5054422;28;20189;-72
2021/07/31 00:20:45;;;;;;;11.60;6.20;;;;;;;;;;5054886;28;20519;-72
2021/07/31 00:23:49;;;;;;;8.07;6.23;;;;;;;;;;5041936;28;20224;-72
2021/07/31 00:26:53;;;;;;;11.67;6.43;;;;;;;;;;5054504;28;20188;-72
2021/07/31 00:29:58;;;;;;;8.03;6.27;;;;;;;;;;5054212;28;20176;-72
2021/07/31 00:33:02;;;;;;;8.07;6.30;;;;;;;;;;5053908;28;20212;-72
2021/07/31 00:36:06;;;;;;;10.30;6.33;;;;;;;;;;5054571;28;20179;-72
2021/07/31 00:39:10;;;;;;;6.70;5.43;;;;;;;;;;5054016;28;20180;-72
2021/07/31 00:42:14;;;;;;;10.10;6.07;;;;;;;;;;5041788;28;20215;-72
2021/07/31 00:45:19;;;;;;;8.40;6.27;;;;;;;;;;5054089;28;20180;-72
2021/07/31 00:48:23;;;;;;;8.50;5.43;;;;;;;;;;5042119;28;20184;-72
2021/07/31 00:51:27;;;;;;;7.83;5.77;;;;;;;;;;5053986;28;20196;-72
2021/07/31 00:54:32;;;;;;;9.20;5.20;;;;;;;;;;5053419;28;20204;-72
2021/07/31 00:57:39;;;;;;;6.23;5.47;;;;;;;;;;5041975;28;20196;-72
2021/07/31 01:00:59;;;;;;;10.00;5.40;;;;;;;;;;5032489;28;20180;-72
2021/07/31 01:04:04;;;;;;;9.37;5.50;;;;;;;;;;5053564;28;20520;-72
2021/07/31 01:07:08;;;;;;;8.30;5.17;;;;;;;;;;5053871;28;20670;-72
2021/07/31 01:10:13;;;;;;;5.73;5.13;;;;;;;;;;5053769;28;20180;-72
2021/07/31 01:13:17;;;;;;;7.73;5.50;;;;;;;;;;5053340;28;20219;-72
2021/07/31 01:16:22;;;;;;;6.97;5.17;;;;;;;;;;5053369;28;20207;-72
2021/07/31 01:19:26;;;;;;;9.17;5.00;;;;;;;;;;5041405;28;20177;-72
2021/07/31 01:22:32;;;;;;;8.00;5.77;;;;;;;;;;5053385;28;20690;-72
2021/07/31 01:25:39;;;;;;;7.73;4.97;;;;;;;;;;5030237;28;20639;-72
2021/07/31 01:28:44;;;;;;;8.93;5.47;;;;;;;;;;5018765;28;20169;-72
2021/07/31 01:31:48;;;;;;;11.10;5.47;;;;;;;;;;5041344;28;20184;-72
2021/07/31 01:34:53;;;;;;;6.47;5.37;;;;;;;;;;5053242;28;20200;-72
2021/07/31 01:37:57;;;;;;;7.33;6.13;;;;;;;;;;5040883;28;20184;-72
2021/07/31 01:41:02;;;;;;;7.90;5.50;;;;;;;;;;5041455;28;20647;-72
2021/07/31 01:44:08;;;;;;;9.03;5.47;;;;;;;;;;5041250;28;20172;-72
2021/07/31 01:47:13;;;;;;;6.70;5.13;;;;;;;;;;5056895;28;20536;-72
2021/07/31 01:50:19;;;;;;;9.80;5.27;;;;;;;;;;5034092;28;20180;-72
2021/07/31 01:53:27;;;;;;;8.33;5.37;;;;;;;;;;5057414;28;20560;-72
2021/07/31 01:56:33;;;;;;;9.07;5.47;;;;;;;;;;5044772;28;20208;-72
2021/07/31 01:59:37;;;;;;;6.87;5.20;;;;;;;;;;5057230;28;20192;-72
2021/07/31 02:02:42;;;;;;;8.67;5.03;;;;;;;;;;5057042;28;20211;-72
2021/07/31 02:05:51;;;;;;;7.33;5.80;;;;;;;;;;5044913;28;20177;-72
2021/07/31 02:08:55;;;;;;;5.93;5.03;;;;;;;;;;5057138;28;20507;-72
2021/07/31 02:12:01;;;;;;;12.13;5.93;;;;;;;;;;5057173;28;20215;-72
2021/07/31 02:15:05;;;;;;;6.30;5.40;;;;;;;;;;5044265;28;20208;-73
2021/07/31 02:18:11;;;;;;;5.40;4.77;;;;;;;;;;5033714;28;20185;-72
2021/07/31 02:21:16;;;;;;;6.23;5.30;;;;;;;;;;5044842;28;20650;-73
2021/07/31 02:24:36;;;;;;;5.93;4.63;;;;;;;;;;5044301;28;20181;-72
2021/07/31 02:27:45;;;;;;;7.07;5.30;;;;;;;;;;5056769;28;20184;-73
2021/07/31 02:30:49;;;;;;;7.80;5.23;;;;;;;;;;5044626;28;20184;-72
2021/07/31 02:33:55;;;;;;;5.73;5.07;;;;;;;;;;5043975;28;20224;-72
2021/07/31 02:37:03;;;;;;;6.80;5.03;;;;;;;;;;5044075;28;20189;-73
2021/07/31 02:40:13;;;;;;;8.10;5.47;;;;;;;;;;5056269;28;20181;-72
2021/07/31 02:43:17;;;;;;;5.93;5.30;;;;;;;;;;5043849;28;20216;-72
2021/07/31 02:46:25;;;;;;;6.50;5.07;;;;;;;;;;5056147;28;20512;-73
2021/07/31 02:49:29;;;;;;;9.40;5.40;;;;;;;;;;5043988;28;20195;-73
2021/07/31 02:52:33;;;;;;;7.17;4.87;;;;;;;;;;5056738;28;20219;-72
2021/07/31 02:55:37;;;;;;;7.27;5.60;;;;;;;;;;5043386;28;20216;-72
2021/07/31 02:58:41;;;;;;;7.00;4.97;;;;;;;;;;5056384;28;20188;-73
2021/07/31 03:01:46;;;;;;;7.60;5.27;;;;;;;;;;5044053;28;20524;-73
2021/07/31 03:04:50;;;;;;;8.67;4.90;;;;;;;;;;5056050;28;20176;-73
2021/07/31 03:07:57;;;;;;;6.80;4.90;;;;;;;;;;5043610;28;20508;-72
2021/07/31 03:11:07;;;;;;;8.90;5.17;;;;;;;;;;5044224;28;20180;-73
2021/07/31 03:14:13;;;;;;;7.83;4.93;;;;;;;;;;5055692;28;20215;-73
2021/07/31 03:17:21;;;;;;;7.13;5.03;;;;;;;;;;5056054;28;20511;-72
2021/07/31 03:20:25;;;;;;;5.57;5.03;;;;;;;;;;5043126;28;20199;-72
2021/07/31 03:23:36;;;;;;;7.83;4.90;;;;;;;;;;5043114;28;20556;-72
2021/07/31 03:26:40;;;;;;;5.67;4.70;;;;;;;;;;5055600;28;20184;-72
2021/07/31 03:29:49;;;;;;;9.77;5.30;;;;;;;;;;5043052;28;20180;-72
2021/07/31 03:32:53;;;;;;;9.40;5.20;;;;;;;;;;5043477;28;20216;-73
2021/07/31 03:35:57;;;;;;;7.10;5.33;;;;;;;;;;5054862;28;20240;-73
2021/07/31 03:39:12;;;;;;;9.30;5.40;;;;;;;;;;5042789;28;20184;-73
2021/07/31 03:42:17;;;;;;;6.47;4.83;;;;;;;;;;5042983;28;20215;-73
2021/07/31 03:45:25;;;;;;;6.47;4.90;;;;;;;;;;5042740;28;20196;-72
2021/07/31 03:48:30;;;;;;;6.73;4.83;;;;;;;;;;5042677;28;20195;-73
2021/07/31 03:51:35;;;;;;;11.67;5.17;;;;;;;;;;5055078;28;20200;-73
2021/07/31 03:54:39;;;;;;;6.90;4.77;;;;;;;;;;5054591;28;20216;-73
2021/07/31 03:57:44;;;;;;;7.70;5.27;;;;;;;;;;5043092;28;20188;-72
2021/07/31 04:00:51;;;;;;;8.17;5.20;;;;;;;;;;5042671;28;20180;-73
2021/07/31 04:03:55;;;;;;;6.80;5.30;;;;;;;;;;5054609;28;20686;-73
2021/07/31 04:07:01;;;;;;;9.03;5.57;;;;;;;;;;5042350;28;20206;-72
2021/07/31 04:10:41;;;;;;;7.50;5.73;;;;;;;;;;5042692;28;20643;-72
2021/07/31 04:14:04;;;;;;;7.60;5.07;;;;;;;;;;5054391;28;20180;-72
2021/07/31 04:17:34;;;;;;;6.93;5.53;;;;;;;;;;5068367;22;20224;-73
2021/07/31 04:20:39;;;;;;;6.73;5.43;;;;;;;;;;5031022;28;20173;-73
2021/07/31 04:23:43;;;;;;;8.60;4.80;;;;;;;;;;5042240;28;20211;-73
2021/07/31 04:26:49;;;;;;;9.30;5.10;;;;;;;;;;5042487;28;20176;-74
2021/07/31 04:29:53;;;;;;;7.53;5.00;;;;;;;;;;5054345;28;20188;-74
2021/07/31 04:32:57;;;;;;;8.97;5.50;;;;;;;;;;5042088;28;20215;-74
2021/07/31 04:36:02;;;;;;;7.23;5.47;;;;;;;;;;5054017;28;20547;-74
2021/07/31 04:39:07;;;;;;;8.33;5.70;;;;;;;;;;5041844;28;20184;-73
2021/07/31 04:42:11;;;;;;;7.33;5.57;;;;;;;;;;5054093;28;20215;-74
2021/07/31 04:45:15;;;;;;;8.00;5.30;;;;;;;;;;5041850;28;20191;-73
2021/07/31 04:48:20;;;;;;;5.63;4.77;;;;;;;;;;5041807;28;20195;-74
2021/07/31 04:51:24;;;;;;;6.57;5.23;;;;;;;;;;5042096;28;20627;-74
2021/07/31 04:54:30;;;;;;;7.67;5.57;;;;;;;;;;5053708;28;20223;-73
2021/07/31 04:57:34;;;;;;;6.37;5.60;;;;;;;;;;5053967;28;20172;-73
2021/07/31 05:00:38;;;;;;;5.87;5.30;;;;;;;;;;5041871;28;20184;-73
2021/07/31 05:03:42;;;;;;;8.20;5.43;;;;;;;;;;5053788;28;20215;-74
2021/07/31 05:06:46;;;;;;;10.80;5.60;;;;;;;;;;5041458;28;20177;-74
2021/07/31 05:09:51;;;;;;;6.67;5.33;;;;;;;;;;5053759;28;20184;-74
2021/07/31 05:12:55;;;;;;;8.20;5.80;;;;;;;;;;5041572;28;20215;-73
2021/07/31 05:15:59;;;;;;;8.57;7.23;;;;;;;;;;5053429;28;20552;-73
2021/07/31 05:19:03;;;;;;;7.63;6.07;;;;;;;;;;5041416;28;20175;-73
2021/07/31 05:22:07;;;;;;;7.33;5.63;;;;;;;;;;5053763;28;20219;-73
2021/07/31 05:25:12;;;;;;;10.10;6.00;;;;;;;;;;5054119;28;20500;-74
2021/07/31 05:28:16;;;;;;;7.87;6.00;;;;;;;;;;5053505;28;20500;-74
2021/07/31 05:31:21;;;;;;;6.17;5.50;;;;;;;;;;5053300;28;20192;-74
2021/07/31 05:34:24;;;;;;;6.40;5.80;;;;;;;;;;5041177;28;20180;-73
2021/07/31 05:37:31;;;;;;;7.33;6.03;;;;;;;;;;5053351;28;20188;-73
2021/07/31 05:40:35;;;;;;;10.43;6.47;;;;;;;;;;5053468;28;20204;-73
2021/07/31 05:43:39;;;;;;;5.93;5.33;;;;;;;;;;5041271;28;20215;-75
2021/07/31 05:46:43;;;;;;;9.27;6.00;;;;;;;;;;5040860;28;20199;-75
2021/07/31 05:49:47;;;;;;;9.80;6.27;;;;;;;;;;5053391;28;20512;-75
2021/07/31 05:52:52;;;;;;;9.63;6.57;;;;;;;;;;5040750;28;20216;-75
2021/07/31 05:55:56;;;;;;;9.27;6.67;;;;;;;;;;5053148;28;20670;-75
2021/07/31 05:59:00;;;;;;;7.87;6.27;;;;;;;;;;5041166;28;20184;-74
2021/07/31 06:02:06;;;;;;;6.93;5.87;;;;;;;;;;5040955;28;20211;-74
2021/07/31 06:05:11;;;;;;;6.60;5.33;;;;;;;;;;5053211;28;20500;-74
2021/07/31 06:08:15;;;;;;;11.63;6.20;;;;;;;;;;5040867;28;20655;-74
2021/07/31 06:11:19;;;;;;;7.97;5.67;;;;;;;;;;5053234;28;20692;-75
2021/07/31 06:14:23;;;;;;;7.43;5.77;;;;;;;;;;5053056;28;20219;-74
2021/07/31 06:17:27;;;;;;;6.87;5.90;;;;;;;;;;5052891;28;20229;-74
2021/07/31 06:20:33;;;;;;;6.97;5.67;;;;;;;;;;5018178;28;20184;-75
2021/07/31 06:23:37;;;;;;;7.13;6.43;;;;;;;;;;5040436;28;20682;-75
2021/07/31 06:26:41;;;;;;;9.53;6.00;;;;;;;;;;5052941;28;20192;-75
2021/07/31 06:29:45;;;;;;;7.67;6.50;;;;;;;;;;5040910;28;20200;-75
2021/07/31 06:32:49;;;;;;;8.57;6.23;;;;;;;;;;5055288;28;20223;-75
2021/07/31 06:35:53;;;;;;;8.23;6.40;;;;;;;;;;5044191;28;20208;-74
2021/07/31 06:38:58;;;;;;;8.97;6.10;;;;;;;;;;5044308;28;20184;-75
2021/07/31 06:42:02;;;;;;;9.97;6.47;;;;;;;;;;5044482;28;20555;-75
2021/07/31 06:45:06;;;;;;;11.63;6.23;;;;;;;;;;5056542;28;20176;-75
2021/07/31 06:48:11;;;;;;;7.73;6.13;;;;;;;;;;5056348;28;20185;-75
2021/07/31 06:51:17;;;;;;;7.70;6.40;;;;;;;;;;5056329;28;20199;-75
2021/07/31 06:54:21;;;;;;;11.97;6.30;;;;;;;;;;5056338;28;20199;-75
2021/07/31 06:57:25;;;;;;;10.63;6.20;;;;;;;;;;5055916;28;20187;-75
2021/07/31 07:00:29;;;;;;;7.50;5.57;;;;;;;;;;5043726;28;20180;-75
2021/07/31 07:03:33;;;;;;;7.10;5.50;;;;;;;;;;5032442;28;20216;-75
2021/07/31 07:06:40;;;;;;;9.43;5.60;;;;;;;;;;5055783;28;20180;-74
2021/07/31 07:09:45;;;;;;;8.40;4.70;;;;;;;;;;5043816;28;20176;-75
2021/07/31 07:12:49;;;;;;;6.00;4.23;;;;;;;;;;5055878;28;20227;-74
2021/07/31 07:15:54;;;;;;;7.97;4.77;;;;;;;;;;5055827;28;20224;-74
2021/07/31 07:18:59;;;;;;;5.97;4.37;;;;;;;;;;5055615;28;20172;-74
2021/07/31 07:22:03;;;;;;;5.90;4.03;;;;;;;;;;5043435;28;20204;-74
2021/07/31 07:25:07;;;;;;;11.97;4.43;;;;;;;;;;5055721;28;20173;-75
2021/07/31 07:28:11;;;;;;;8.67;4.70;;;;;;;;;;5043345;28;20196;-74
2021/07/31 07:31:16;;;;;;;7.80;4.60;;;;;;;;;;5055604;28;20191;-75
2021/07/31 07:34:21;;;;;;;7.57;4.73;;;;;;;;;;5043378;28;20192;-74
2021/07/31 07:37:25;;;;;;;9.80;4.90;;;;;;;;;;5031906;28;20647;-74
2021/07/31 07:40:29;;;;;;;7.73;4.73;;;;;;;;;;5055469;28;20191;-74
2021/07/31 07:43:33;;;;;;;7.43;4.97;;;;;;;;;;5055011;28;20220;-75
2021/07/31 07:46:37;;;;;;;7.33;4.70;;;;;;;;;;5043234;28;20192;-74
2021/07/31 07:49:41;;;;;;;5.83;4.27;;;;;;;;;;5031620;28;20203;-74
2021/07/31 07:52:45;;;;;;;5.40;4.03;;;;;;;;;;5043113;28;20211;-75
2021/07/31 07:55:49;;;;;;;8.07;4.67;;;;;;;;;;5055118;28;20207;-74
2021/07/31 07:58:57;;;;;;;5.83;4.50;;;;;;;;;;5055272;28;20180;-75
2021/07/31 08:02:02;;;;;;;7.40;3.93;;;;;;;;;;5054984;28;20220;-74
2021/07/31 08:05:07;;;;;;;4.53;3.17;;;;;;;;;;5055051;28;20176;-75
2021/07/31 08:08:11;;;;;;;8.70;3.00;;;;;;;;;;5054889;28;20180;-76
2021/07/31 08:11:15;;;;;;;13.07;3.00;;;;;;;;;;5042636;28;20192;-74
2021/07/31 08:14:19;;;;;;;8.00;2.90;;;;;;;;;;5054785;28;20208;-75
2021/07/31 08:17:23;;;;;;;4.00;2.70;;;;;;;;;;5042083;28;20224;-75
2021/07/31 08:20:28;;;;;;;4.47;2.13;;;;;;;;;;5042472;28;20191;-74
2021/07/31 08:23:32;;;;;;;6.13;2.07;;;;;;;;;;5054469;28;20212;-74
2021/07/31 08:26:36;;;;;;;4.53;2.40;;;;;;;;;;5054636;28;20189;-75
2021/07/31 08:29:40;;;;;;;4.67;2.13;;;;;;;;;;5042220;28;20190;-75
2021/07/31 08:32:45;;;;;;;2.80;1.75;;;;;;;;;;5030910;28;20221;-73
2021/07/31 08:35:49;;;;;;;4.75;1.83;;;;;;;;;;5041744;28;20224;-74
2021/07/31 08:38:53;;;;;;;3.88;1.77;;;;;;;;;;5054087;28;20195;-75
2021/07/31 08:41:57;;;;;;;6.80;1.90;;;;;;;;;;5053886;28;20215;-75
2021/07/31 08:45:04;;;;;;;2.50;1.50;;;;;;;;;;5041820;28;20199;-74
2021/07/31 08:48:09;;;;;;;3.60;1.80;;;;;;;;;;5053899;28;20177;-75
2021/07/31 08:51:16;;;;;;;6.22;1.67;;;;;;;;;;5054144;28;20183;-75
2021/07/31 08:54:20;;;;;;;5.60;1.48;;;;;;;;;;5053419;28;20187;-75
2021/07/31 08:57:24;;;;;;;4.75;1.70;;;;;;;;;;5053748;28;20210;-75
2021/07/31 09:00:28;;;;;;;5.53;1.50;;;;;;;;;;5053693;28;20183;-75
2021/07/31 09:03:43;;;;;;;2.40;1.40;;;;;;;;;;5041323;28;20220;-75
2021/07/31 09:06:49;;;;;;;4.43;1.88;;;;;;;;;;5053858;28;20621;-75
2021/07/31 09:09:53;;;;;;;5.40;1.88;;;;;;;;;;5041339;28;20179;-75
2021/07/31 09:13:00;;;;;;;3.08;1.42;;;;;;;;;;5053432;28;20217;-75
2021/07/31 09:16:08;;;;;;;6.18;1.92;;;;;;;;;;5053852;28;20213;-75
2021/07/31 09:19:14;;;;;;;5.30;1.73;;;;;;;;;;5053403;28;20620;-75
2021/07/31 09:22:18;;;;;;;3.13;1.85;;;;;;;;;;5053226;28;20218;-75
2021/07/31 09:25:23;;;;;;;4.70;1.95;;;;;;;;;;5041388;28;20176;-75
2021/07/31 09:28:28;;;;;;;4.15;1.60;;;;;;;;;;5053295;28;20188;-75
2021/07/31 09:31:32;;;;;;;4.15;1.90;;;;;;;;;;5053454;28;20178;-75
2021/07/31 09:34:44;;;;;;;2.92;1.50;;;;;;;;;;5041341;28;20185;-75
2021/07/31 09:37:49;;;;;;;10.52;2.13;;;;;;;;;;5053344;28;20204;-75
2021/07/31 09:40:54;;;;;;;4.25;1.70;;;;;;;;;;5053408;28;20187;-75
2021/07/31 09:43:58;;;;;;;5.18;1.90;;;;;;;;;;5041094;28;20180;-75
2021/07/31 09:47:10;;;;;;;13.18;2.83;;;;;;;;;;5053644;28;20186;-75
2021/07/31 09:50:35;;;;;;;2.00;1.70;;;;;;;;;;5053347;28;20189;-76
2021/07/31 09:53:41;;;;;;;2.55;1.80;;;;;;;;;;5053198;28;20217;-75
2021/07/31 09:56:47;;;;;;;3.13;1.63;;;;;;;;;;5053210;28;20201;-75
2021/07/31 09:59:51;;;;;;;5.28;1.70;;;;;;;;;;5053137;28;20179;-75
2021/07/31 10:02:56;;;;;;;4.72;1.83;;;;;;;;;;5053049;28;20223;-75
2021/07/31 10:06:00;;;;;;;4.55;1.40;;;;;;;;;;5052993;28;20203;-75
2021/07/31 10:09:06;;;;;;;4.20;1.65;;;;;;;;;;5044818;28;20195;-76
2021/07/31 10:12:11;;;;;;;5.95;1.83;;;;;;;;;;5045151;28;20368;-76
2021/07/31 10:15:16;;;;;;;3.63;1.63;;;;;;;;;;5057093;28;20178;-76
2021/07/31 10:18:23;;;;;;;4.68;1.50;;;;;;;;;;5059019;22;20230;-73
2021/07/31 10:21:28;;;;;;;3.38;1.67;;;;;;;;;;5037031;28;20188;-74
2021/07/31 10:25:01;;;;;;;3.40;1.75;;;;;;;;;;5016907;28;20208;-74
2021/07/31 10:28:25;;;;;;;5.68;1.45;;;;;;;;;;5016890;28;20181;-73
2021/07/31 10:31:32;;;;;;;7.03;1.60;;;;;;;;;;5005275;28;20623;-73
2021/07/31 10:34:56;;;;;;;3.75;1.88;;;;;;;;;;5004873;28;20180;-74
2021/07/31 10:38:04;;;;;;;3.22;1.67;;;;;;;;;;5016665;28;20213;-74
2021/07/31 10:41:08;;;;;;;4.72;1.80;;;;;;;;;;5016959;28;20182;-74
2021/07/31 10:44:12;;;;;;;4.10;1.65;;;;;;;;;;5016577;28;20198;-74
2021/07/31 10:47:20;;;;;;;5.50;2.00;;;;;;;;;;5016732;28;20193;-74
2021/07/31 10:53:48;;;;;;;4.72;1.63;;;;;;;;;;5016323;28;20214;-74
2021/07/31 10:56:54;;;;;;;2.20;1.48;;;;;;;;;;5016500;28;20209;-74
2021/07/31 11:00:20;;;;;;;3.28;1.98;;;;;;;;;;5016704;28;20577;-74
2021/07/31 11:03:25;;;;;;;4.20;1.95;;;;;;;;;;5015868;28;20218;-75
2021/07/31 11:07:07;;;;;;;3.60;1.75;;;;;;;;;;5015584;28;20190;-74
2021/07/31 11:10:34;;;;;;;3.30;1.30;;;;;;;;;;5016373;28;20538;-74
2021/07/31 11:13:43;;;;;;;2.78;1.50;;;;;;;;;;5014952;28;20217;-74
2021/07/31 11:16:47;;;;;;;3.88;1.60;;;;;;;;;;5015614;28;20206;-74
2021/07/31 11:19:51;;;;;;;3.90;1.88;;;;;;;;;;5015859;28;20201;-74
2021/07/31 11:22:56;;;;;;;3.83;1.73;;;;;;;;;;5015529;28;20221;-74
2021/07/31 11:26:01;;;;;;;2.35;1.65;;;;;;;;;;5016062;28;20189;-75
2021/07/31 11:29:27;;;;;;;4.30;1.92;;;;;;;;;;5015318;28;20525;-74
2021/07/31 11:32:31;;;;;;;4.80;1.67;;;;;;;;;;5015609;28;20700;-73
2021/07/31 11:35:35;;;;;;;5.63;1.52;;;;;;;;;;5014807;28;20633;-74
2021/07/31 11:38:41;;;;;;;4.90;1.50;;;;;;;;;;5015646;28;20644;-74
2021/07/31 11:41:45;;;;;;;3.05;1.75;;;;;;;;;;5015180;28;20523;-74
2021/07/31 11:44:49;;;;;;;3.22;2.30;;;;;;;;;;5014759;28;20182;-74
2021/07/31 11:47:57;;;;;;;3.63;1.63;;;;;;;;;;5015438;28;20173;-74
2021/07/31 11:51:02;;;;;;;4.65;1.85;;;;;;;;;;5015812;28;20174;-74
2021/07/31 11:54:08;;;;;;;3.05;1.65;;;;;;;;;;5015324;28;20177;-74
2021/07/31 11:57:14;;;;;;;2.75;1.60;;;;;;;;;;5014542;28;20206;-75
2021/07/31 12:00:19;;;;;;;5.30;2.10;;;;;;;;;;5015171;28;20188;-74
2021/07/31 12:03:46;;;;;;;2.72;1.77;;;;;;;;;;5014495;28;20221;-74
2021/07/31 12:06:51;;;;;;;2.75;1.70;;;;;;;;;;5014497;28;20181;-74
2021/07/31 12:10:02;;;;;;;5.22;1.55;;;;;;;;;;5015765;28;20184;-74
2021/07/31 12:13:08;;;;;;;5.00;1.92;;;;;;;;;;5015232;28;20219;-74
2021/07/31 12:16:12;;;;;;;5.63;2.08;;;;;;;;;;4991882;28;20206;-74
2021/07/31 12:19:16;;;;;;;7.60;1.90;;;;;;;;;;5014758;28;20206;-74
2021/07/31 12:22:26;;;;;;;5.13;1.77;;;;;;;;;;5014662;28;20221;-74
2021/07/31 12:25:31;;;;;;;3.00;1.77;;;;;;;;;;5014986;28;20185;-74
2021/07/31 12:28:43;;;;;;;2.55;1.65;;;;;;;;;;5014019;28;20181;-73
2021/07/31 12:31:47;;;;;;;2.97;1.60;;;;;;;;;;5014784;28;20189;-74
2021/07/31 12:34:52;;;;;;;9.05;1.92;;;;;;;;;;5014520;28;20184;-74
2021/07/31 12:37:57;;;;;;;3.28;1.70;;;;;;;;;;5014396;28;20201;-74
2021/07/31 12:41:02;;;;;;;4.13;1.85;;;;;;;;;;5013603;28;20205;-74
2021/07/31 12:44:06;;;;;;;3.58;1.50;;;;;;;;;;5002488;28;20655;-74
2021/07/31 12:47:10;;;;;;;3.80;1.77;;;;;;;;;;5013832;28;20569;-75
2021/07/31 12:50:14;;;;;;;4.15;1.45;;;;;;;;;;5014775;28;20178;-74
2021/07/31 12:53:20;;;;;;;1.48;1.20;;;;;;;;;;5013260;28;20213;-74
2021/07/31 12:56:24;;;;;;;3.90;1.92;;;;;;;;;;5014786;28;20514;-74
2021/07/31 12:59:28;;;;;;;4.25;1.50;;;;;;;;;;5014307;28;20174;-73
2021/07/31 13:02:32;;;;;;;4.82;1.77;;;;;;;;;;5001920;28;20698;-74
2021/07/31 13:05:39;;;;;;;2.70;1.50;;;;;;;;;;5013449;28;20208;-74
2021/07/31 13:08:43;;;;;;;2.88;1.73;;;;;;;;;;5013843;28;20180;-75
2021/07/31 13:11:48;;;;;;;2.50;1.35;;;;;;;;;;5014345;28;20181;-74
2021/07/31 13:14:52;;;;;;;3.17;1.58;;;;;;;;;;5014159;28;20179;-75
2021/07/31 13:17:56;;;;;;;4.47;1.77;;;;;;;;;;5012841;28;20229;-75
2021/07/31 13:21:00;;;;;;;3.42;1.50;;;;;;;;;;5014085;28;20645;-73
2021/07/31 13:24:05;;;;;;;4.07;1.70;;;;;;;;;;5013237;28;20183;-74
2021/07/31 13:27:11;;;;;;;4.00;1.63;;;;;;;;;;5014254;28;20193;-74
2021/07/31 13:30:16;;;;;;;3.17;1.77;;;;;;;;;;5013751;28;20185;-74
2021/07/31 13:33:20;;;;;;;4.22;1.60;;;;;;;;;;5012523;28;20244;-74
2021/07/31 13:36:26;;;;;;;4.65;1.80;;;;;;;;;;5002071;28;20633;-74
2021/07/31 13:39:32;;;;;;;3.00;1.50;;;;;;;;;;5013634;28;20178;-74
2021/07/31 13:42:37;;;;;;;3.25;1.55;;;;;;;;;;5019360;28;20703;-74
2021/07/31 13:45:42;;;;;;;3.58;1.45;;;;;;;;;;5019513;28;20197;-74
2021/07/31 13:48:46;;;;;;;3.55;1.48;;;;;;;;;;5020062;28;20172;-74
2021/07/31 13:51:50;;;;;;;1.88;1.33;;;;;;;;;;4997432;28;20180;-74
2021/07/31 13:54:54;;;;;;;5.32;1.50;;;;;;;;;;5020047;28;20521;-74
2021/07/31 13:57:59;;;;;;;3.92;1.60;;;;;;;;;;5020079;28;20204;-75
2021/07/31 14:01:04;;;;;;;2.63;1.67;;;;;;;;;;5019161;28;20658;-74
2021/07/31 14:04:08;;;;;;;2.90;1.58;;;;;;;;;;5019995;28;20189;-74
2021/07/31 14:07:12;;;;;;;3.25;1.77;;;;;;;;;;5020206;28;20178;-74
2021/07/31 14:10:16;;;;;;;4.05;1.50;;;;;;;;;;5019889;28;20188;-75
2021/07/31 14:13:19;;;;;;;2.38;1.40;;;;;;;;;;5019232;28;20718;-74
2021/07/31 14:16:24;;;;;;;4.53;2.53;;;;;;;;;;5019216;28;20208;-74
2021/07/31 14:19:28;;;;;;;2.20;1.50;;;;;;;;;;5020051;28;20200;-73
2021/07/31 14:22:33;;;;;;;3.83;1.80;;;;;;;;;;5020158;28;20217;-74
2021/07/31 14:25:43;;;;;;;2.72;1.40;;;;;;;;;;5007672;28;20182;-74
2021/07/31 14:28:47;;;;;;;3.05;1.60;;;;;;;;;;5007882;28;20184;-74
2021/07/31 14:31:51;;;;;;;2.42;1.63;;;;;;;;;;5019867;28;20198;-74
2021/07/31 14:34:56;;;;;;;4.40;1.60;;;;;;;;;;5018863;28;20197;-74
2021/07/31 14:38:00;;;;;;;2.85;1.85;;;;;;;;;;5019714;28;20215;-74
2021/07/31 14:41:07;;;;;;;4.15;1.58;;;;;;;;;;5019843;28;20524;-74
2021/07/31 14:44:11;;;;;;;5.10;1.67;;;;;;;;;;5019838;28;20524;-74
2021/07/31 14:47:15;;;;;;;6.72;1.73;;;;;;;;;;5019562;28;20515;-73
2021/07/31 14:50:20;;;;;;;2.45;1.50;;;;;;;;;;5019839;28;20186;-75
2021/07/31 14:53:24;;;;;;;2.03;1.42;;;;;;;;;;5015616;28;20221;-74
2021/07/31 14:56:28;;;;;;;3.00;1.55;;;;;;;;;;5016919;28;20198;-75
2021/07/31 14:59:33;;;;;;;2.30;1.50;;;;;;;;;;5016711;28;20629;-75
2021/07/31 15:02:37;;;;;;;3.08;1.48;;;;;;;;;;5016479;28;20224;-74
2021/07/31 15:05:42;;;;;;;1.75;1.20;;;;;;;;;;5015424;28;20180;-75
2021/07/31 15:08:46;;;;;;;3.08;1.42;;;;;;;;;;5015360;28;20181;-75
2021/07/31 15:11:51;;;;;;;2.15;1.20;;;;;;;;;;5016239;28;20185;-74
2021/07/31 15:14:56;;;;;;;3.60;1.40;;;;;;;;;;5016023;28;20185;-74
2021/07/31 15:17:59;;;;;;;3.72;1.40;;;;;;;;;;5015090;28;20228;-74
2021/07/31 15:21:14;;;;;;;4.40;1.40;;;;;;;;;;5003878;28;20190;-75
2021/07/31 15:24:18;;;;;;;3.53;1.33;;;;;;;;;;5015974;28;20185;-73
2021/07/31 15:27:22;;;;;;;5.07;1.33;;;;;;;;;;5016376;28;20186;-75
2021/07/31 15:30:26;;;;;;;2.45;1.20;;;;;;;;;;5016028;28;20178;-74
2021/07/31 15:33:30;;;;;;;3.58;1.42;;;;;;;;;;5014872;28;20224;-75
2021/07/31 15:36:34;;;;;;;6.20;1.40;;;;;;;;;;5015882;28;20183;-74
2021/07/31 15:39:38;;;;;;;1.63;1.13;;;;;;;;;;5014736;28;20208;-74
2021/07/31 15:42:43;;;;;;;4.45;1.40;;;;;;;;;;5015654;28;20224;-74
2021/07/31 15:45:48;;;;;;;2.83;1.58;;;;;;;;;;5015688;28;20203;-74
2021/07/31 15:48:52;;;;;;;2.03;1.38;;;;;;;;;;5015932;28;20179;-73
2021/07/31 15:51:56;;;;;;;3.38;1.50;;;;;;;;;;5015527;28;20219;-74
2021/07/31 15:55:00;;;;;;;4.28;1.40;;;;;;;;;;5015563;28;20190;-74
2021/07/31 15:58:04;;;;;;;4.68;1.40;;;;;;;;;;5015411;28;20196;-74
2021/07/31 16:01:14;;;;;;;3.30;1.23;;;;;;;;;;5014658;28;20191;-74
2021/07/31 16:04:18;;;;;;;5.35;1.35;;;;;;;;;;5014230;28;20184;-74
2021/07/31 16:07:22;;;;;;;2.75;1.30;;;;;;;;;;5015323;28;20179;-74
2021/07/31 16:10:26;;;;;;;4.45;1.60;;;;;;;;;;5014997;28;20180;-74
2021/07/31 16:13:30;;;;;;;4.35;1.48;;;;;;;;;;5014886;28;20225;-74
2021/07/31 16:16:35;;;;;;;2.03;1.37;;;;;;;;;;5014124;28;20175;-74
2021/07/31 16:19:39;;;;;;;2.07;1.40;;;;;;;;;;5078514;22;20235;-86
2021/07/31 16:22:43;;;;;;;3.30;1.50;;;;;;;;;;5023171;28;20184;-86
2021/07/31 16:25:47;;;;;;;5.73;1.67;;;;;;;;;;5011712;28;20180;-86
2021/07/31 16:28:51;;;;;;;5.80;1.47;;;;;;;;;;5022714;28;20219;-86
2021/07/31 16:32:00;;;;;;;2.67;1.47;;;;;;;;;;5000579;28;20188;-86
2021/07/31 16:35:05;;;;;;;3.23;1.50;;;;;;;;;;5000428;28;20191;-86
2021/07/31 16:38:09;;;;;;;1.40;1.30;;;;;;;;;;5011276;28;20229;-86
2021/07/31 16:41:13;;;;;;;3.90;1.60;;;;;;;;;;5000382;28;20525;-86
2021/07/31 16:44:18;;;;;;;5.17;1.40;;;;;;;;;;5000602;28;20180;-86
2021/07/31 16:47:22;;;;;;;2.07;1.43;;;;;;;;;;5011448;28;20202;-86
2021/07/31 16:50:26;;;;;;;5.93;1.60;;;;;;;;;;4999936;28;20182;-86
2021/07/31 16:53:30;;;;;;;3.60;1.60;;;;;;;;;;5000136;28;20185;-86
2021/07/31 16:56:35;;;;;;;3.30;1.53;;;;;;;;;;5000199;28;20180;-86
2021/07/31 16:59:39;;;;;;;2.30;1.50;;;;;;;;;;5004585;23;20578;-74
2021/07/31 17:02:43;;;;;;;3.23;1.70;;;;;;;;;;5014418;28;20692;-73
2021/07/31 17:05:48;;;;;;;2.73;1.40;;;;;;;;;;5014580;28;20185;-73
2021/07/31 17:08:52;;;;;;;2.87;1.30;;;;;;;;;;5001936;28;20187;-73
2021/07/31 17:11:56;;;;;;;2.63;1.37;;;;;;;;;;5002356;28;20222;-73
2021/07/31 17:15:00;;;;;;;2.70;1.77;;;;;;;;;;5013866;28;20176;-73
2021/07/31 17:18:04;;;;;;;5.20;1.70;;;;;;;;;;5013729;28;20565;-74
2021/07/31 17:21:08;;;;;;;4.80;1.73;;;;;;;;;;5014044;28;20204;-73
2021/07/31 17:24:12;;;;;;;7.40;1.77;;;;;;;;;;5001938;28;20184;-73
2021/07/31 17:27:16;;;;;;;3.17;1.60;;;;;;;;;;5014245;28;20187;-73
2021/07/31 17:30:21;;;;;;;2.23;1.47;;;;;;;;;;5013959;28;20178;-73
2021/07/31 17:33:26;;;;;;;3.40;1.50;;;;;;;;;;5013629;28;20225;-73
2021/07/31 17:36:30;;;;;;;3.57;1.80;;;;;;;;;;5001442;28;20202;-73
2021/07/31 17:39:36;;;;;;;2.53;1.53;;;;;;;;;;5013880;28;20205;-73
2021/07/31 17:42:41;;;;;;;3.57;1.67;;;;;;;;;;5013402;28;20702;-73
2021/07/31 17:45:45;;;;;;;5.70;1.50;;;;;;;;;;5013759;28;20196;-73
2021/07/31 17:48:49;;;;;;;3.83;1.70;;;;;;;;;;5001718;28;20178;-73
2021/07/31 17:51:53;;;;;;;1.60;1.33;;;;;;;;;;5013891;28;20220;-73
2021/07/31 17:54:57;;;;;;;4.50;1.40;;;;;;;;;;5014236;28;20186;-73
2021/07/31 17:58:01;;;;;;;7.53;1.50;;;;;;;;;;5001645;28;20181;-73
2021/07/31 18:01:05;;;;;;;4.17;1.70;;;;;;;;;;5013426;28;20182;-73
2021/07/31 18:04:10;;;;;;;3.47;1.60;;;;;;;;;;5013909;28;20181;-73
2021/07/31 18:07:14;;;;;;;2.00;1.67;;;;;;;;;;5013526;28;20625;-73
2021/07/31 18:10:18;;;;;;;3.33;1.63;;;;;;;;;;5001571;28;20185;-73
2021/07/31 18:13:22;;;;;;;2.37;1.40;;;;;;;;;;5013744;28;20219;-73
2021/07/31 18:16:26;;;;;;;2.43;1.70;;;;;;;;;;5013576;28;20525;-73
2021/07/31 18:19:31;;;;;;;4.53;1.70;;;;;;;;;;5013354;28;20203;-73
2021/07/31 18:22:35;;;;;;;2.23;1.50;;;;;;;;;;5013402;28;20559;-73
2021/07/31 18:25:39;;;;;;;3.23;1.50;;;;;;;;;;5012407;28;20202;-73
2021/07/31 18:28:43;;;;;;;2.27;1.40;;;;;;;;;;5015636;28;20193;-73
2021/07/31 18:31:48;;;;;;;7.33;1.90;;;;;;;;;;5017083;28;20191;-73
2021/07/31 18:34:52;;;;;;;4.87;1.60;;;;;;;;;;5004986;28;20183;-73
2021/07/31 18:37:56;;;;;;;2.00;1.43;;;;;;;;;;5004924;28;20183;-73